sensor_id;sensor_type;location;lat;lon;timestamp;temperature;humidity
66568;DHT22;53422;49.296;6.900;2022-08-20T00:00:08;22.60;63.20
66568;DHT22;53422;49.296;6.900;2022-08-20T00:02:44;22.60;62.70
66568;DHT22;53422;49.296;6.900;2022-08-20T00:05:11;22.60;63.30
66568;DHT22;53422;49.296;6.900;2022-08-20T00:07:36;22.60;62.80
66568;DHT22;53422;49.296;6.900;2022-08-20T00:10:04;22.60;63.80
66568;DHT22;53422;49.296;6.900;2022-08-20T00:12:31;22.60;63.10
66568;DHT22;53422;49.296;6.900;2022-08-20T00:14:58;22.60;63.40
66568;DHT22;53422;49.296;6.900;2022-08-20T00:17:24;22.60;63.20
66568;DHT22;53422;49.296;6.900;2022-08-20T00:19:49;22.60;63.00
66568;DHT22;53422;49.296;6.900;2022-08-20T00:22:15;22.60;63.40
66568;DHT22;53422;49.296;6.900;2022-08-20T00:24:41;22.50;63.00
66568;DHT22;53422;49.296;6.900;2022-08-20T00:27:07;22.50;62.80
66568;DHT22;53422;49.296;6.900;2022-08-20T00:29:32;22.60;63.00
66568;DHT22;53422;49.296;6.900;2022-08-20T00:31:58;22.50;63.10
66568;DHT22;53422;49.296;6.900;2022-08-20T00:34:24;22.50;63.30
66568;DHT22;53422;49.296;6.900;2022-08-20T00:36:49;22.50;63.10
66568;DHT22;53422;49.296;6.900;2022-08-20T00:39:15;22.50;63.20
66568;DHT22;53422;49.296;6.900;2022-08-20T00:41:41;22.50;63.20
66568;DHT22;53422;49.296;6.900;2022-08-20T00:44:11;22.50;63.10
66568;DHT22;53422;49.296;6.900;2022-08-20T00:46:38;22.50;63.20
66568;DHT22;53422;49.296;6.900;2022-08-20T00:49:05;22.50;63.10
66568;DHT22;53422;49.296;6.900;2022-08-20T00:51:38;22.50;63.10
66568;DHT22;53422;49.296;6.900;2022-08-20T00:54:12;22.50;63.20
66568;DHT22;53422;49.296;6.900;2022-08-20T00:56:39;22.50;64.40
66568;DHT22;53422;49.296;6.900;2022-08-20T00:59:08;22.50;63.60
66568;DHT22;53422;49.296;6.900;2022-08-20T01:01:38;22.50;63.60
66568;DHT22;53422;49.296;6.900;2022-08-20T01:04:04;22.50;63.50
66568;DHT22;53422;49.296;6.900;2022-08-20T01:06:31;22.50;63.60
66568;DHT22;53422;49.296;6.900;2022-08-20T01:08:57;22.50;64.00
66568;DHT22;53422;49.296;6.900;2022-08-20T01:11:27;22.50;63.70
66568;DHT22;53422;49.296;6.900;2022-08-20T01:14:01;22.50;63.90
66568;DHT22;53422;49.296;6.900;2022-08-20T01:16:45;22.50;63.60
66568;DHT22;53422;49.296;6.900;2022-08-20T01:19:12;22.40;63.70
66568;DHT22;53422;49.296;6.900;2022-08-20T01:21:39;22.40;64.80
66568;DHT22;53422;49.296;6.900;2022-08-20T01:24:34;22.40;64.20
66568;DHT22;53422;49.296;6.900;2022-08-20T01:27:00;22.40;64.20
66568;DHT22;53422;49.296;6.900;2022-08-20T01:29:28;22.40;64.00
66568;DHT22;53422;49.296;6.900;2022-08-20T01:31:56;22.40;64.10
66568;DHT22;53422;49.296;6.900;2022-08-20T01:34:25;22.40;64.40
66568;DHT22;53422;49.296;6.900;2022-08-20T01:36:53;22.40;64.50
66568;DHT22;53422;49.296;6.900;2022-08-20T01:39:30;22.40;64.70
66568;DHT22;53422;49.296;6.900;2022-08-20T01:42:19;22.40;64.60
66568;DHT22;53422;49.296;6.900;2022-08-20T01:44:48;22.40;64.50
66568;DHT22;53422;49.296;6.900;2022-08-20T01:47:21;22.40;64.50
66568;DHT22;53422;49.296;6.900;2022-08-20T01:49:51;22.40;64.50
66568;DHT22;53422;49.296;6.900;2022-08-20T01:52:31;22.40;65.00
66568;DHT22;53422;49.296;6.900;2022-08-20T01:55:00;22.40;64.80
66568;DHT22;53422;49.296;6.900;2022-08-20T01:57:26;22.40;64.90
66568;DHT22;53422;49.296;6.900;2022-08-20T01:59:54;22.40;64.90
66568;DHT22;53422;49.296;6.900;2022-08-20T02:02:20;22.40;65.10
66568;DHT22;53422;49.296;6.900;2022-08-20T02:04:45;22.40;64.80
66568;DHT22;53422;49.296;6.900;2022-08-20T02:07:16;22.40;65.10
66568;DHT22;53422;49.296;6.900;2022-08-20T02:09:43;22.40;65.00
66568;DHT22;53422;49.296;6.900;2022-08-20T02:12:09;22.40;65.00
66568;DHT22;53422;49.296;6.900;2022-08-20T02:14:40;22.40;64.90
66568;DHT22;53422;49.296;6.900;2022-08-20T02:17:07;22.40;65.10
66568;DHT22;53422;49.296;6.900;2022-08-20T02:19:45;22.40;65.00
66568;DHT22;53422;49.296;6.900;2022-08-20T02:22:25;22.40;65.00
66568;DHT22;53422;49.296;6.900;2022-08-20T02:24:53;22.30;65.30
66568;DHT22;53422;49.296;6.900;2022-08-20T02:27:19;22.30;65.10
66568;DHT22;53422;49.296;6.900;2022-08-20T02:29:48;22.30;65.10
66568;DHT22;53422;49.296;6.900;2022-08-20T02:32:14;22.30;65.40
66568;DHT22;53422;49.296;6.900;2022-08-20T02:34:39;22.30;67.00
66568;DHT22;53422;49.296;6.900;2022-08-20T02:37:06;22.30;65.90
66568;DHT22;53422;49.296;6.900;2022-08-20T02:39:33;22.30;66.40
66568;DHT22;53422;49.296;6.900;2022-08-20T02:41:59;22.30;65.90
66568;DHT22;53422;49.296;6.900;2022-08-20T02:44:27;22.30;65.90
66568;DHT22;53422;49.296;6.900;2022-08-20T02:46:52;22.30;66.30
66568;DHT22;53422;49.296;6.900;2022-08-20T02:49:18;22.30;66.30
66568;DHT22;53422;49.296;6.900;2022-08-20T02:51:45;22.30;66.40
66568;DHT22;53422;49.296;6.900;2022-08-20T02:54:11;22.30;66.30
66568;DHT22;53422;49.296;6.900;2022-08-20T02:56:38;22.30;67.20
66568;DHT22;53422;49.296;6.900;2022-08-20T02:59:04;22.30;67.10
66568;DHT22;53422;49.296;6.900;2022-08-20T03:01:29;22.30;67.20
66568;DHT22;53422;49.296;6.900;2022-08-20T03:03:56;22.30;67.90
66568;DHT22;53422;49.296;6.900;2022-08-20T03:06:24;22.30;68.20
66568;DHT22;53422;49.296;6.900;2022-08-20T03:08:50;22.30;67.70
66568;DHT22;53422;49.296;6.900;2022-08-20T03:11:16;22.30;67.40
66568;DHT22;53422;49.296;6.900;2022-08-20T03:13:42;22.30;69.00
66568;DHT22;53422;49.296;6.900;2022-08-20T03:16:08;22.30;67.70
66568;DHT22;53422;49.296;6.900;2022-08-20T03:18:36;22.30;67.60
66568;DHT22;53422;49.296;6.900;2022-08-20T03:21:04;22.30;68.00
66568;DHT22;53422;49.296;6.900;2022-08-20T03:23:30;22.30;68.10
66568;DHT22;53422;49.296;6.900;2022-08-20T03:26:24;22.30;68.30
66568;DHT22;53422;49.296;6.900;2022-08-20T03:32:18;22.30;67.90
66568;DHT22;53422;49.296;6.900;2022-08-20T03:34:44;22.20;68.20
66568;DHT22;53422;49.296;6.900;2022-08-20T03:37:09;22.30;68.00
66568;DHT22;53422;49.296;6.900;2022-08-20T03:39:36;22.20;67.90
66568;DHT22;53422;49.296;6.900;2022-08-20T03:42:02;22.20;67.90
66568;DHT22;53422;49.296;6.900;2022-08-20T03:44:28;22.20;68.40
66568;DHT22;53422;49.296;6.900;2022-08-20T03:46:54;22.20;68.20
66568;DHT22;53422;49.296;6.900;2022-08-20T03:49:19;22.20;68.50
66568;DHT22;53422;49.296;6.900;2022-08-20T03:51:45;22.20;68.30
66568;DHT22;53422;49.296;6.900;2022-08-20T03:54:11;22.20;68.50
66568;DHT22;53422;49.296;6.900;2022-08-20T03:56:37;22.20;68.40
66568;DHT22;53422;49.296;6.900;2022-08-20T03:59:03;22.20;68.70
66568;DHT22;53422;49.296;6.900;2022-08-20T04:01:28;22.20;69.50
66568;DHT22;53422;49.296;6.900;2022-08-20T04:03:55;22.20;68.80
66568;DHT22;53422;49.296;6.900;2022-08-20T04:06:23;22.20;68.60
66568;DHT22;53422;49.296;6.900;2022-08-20T04:08:49;22.20;68.80
66568;DHT22;53422;49.296;6.900;2022-08-20T04:11:15;22.20;68.90
66568;DHT22;53422;49.296;6.900;2022-08-20T04:13:40;22.20;69.00
66568;DHT22;53422;49.296;6.900;2022-08-20T04:16:06;22.20;69.70
66568;DHT22;53422;49.296;6.900;2022-08-20T04:18:33;22.20;69.70
66568;DHT22;53422;49.296;6.900;2022-08-20T04:21:00;22.10;70.10
66568;DHT22;53422;49.296;6.900;2022-08-20T04:23:26;22.20;69.10
66568;DHT22;53422;49.296;6.900;2022-08-20T04:25:51;22.10;69.30
66568;DHT22;53422;49.296;6.900;2022-08-20T04:28:21;22.20;69.40
66568;DHT22;53422;49.296;6.900;2022-08-20T04:30:58;22.20;70.00
66568;DHT22;53422;49.296;6.900;2022-08-20T04:33:26;22.10;69.20
66568;DHT22;53422;49.296;6.900;2022-08-20T04:35:53;22.20;69.50
66568;DHT22;53422;49.296;6.900;2022-08-20T04:38:20;22.20;69.40
66568;DHT22;53422;49.296;6.900;2022-08-20T04:40:46;22.20;69.50
66568;DHT22;53422;49.296;6.900;2022-08-20T04:43:29;22.10;69.30
66568;DHT22;53422;49.296;6.900;2022-08-20T04:45:56;22.10;69.90
66568;DHT22;53422;49.296;6.900;2022-08-20T04:48:24;22.10;69.60
66568;DHT22;53422;49.296;6.900;2022-08-20T04:50:51;22.10;70.00
66568;DHT22;53422;49.296;6.900;2022-08-20T04:53:19;22.10;69.90
66568;DHT22;53422;49.296;6.900;2022-08-20T04:55:45;22.10;70.80
66568;DHT22;53422;49.296;6.900;2022-08-20T04:58:14;22.10;70.20
66568;DHT22;53422;49.296;6.900;2022-08-20T05:00:45;22.10;70.10
66568;DHT22;53422;49.296;6.900;2022-08-20T05:03:11;22.10;70.70
66568;DHT22;53422;49.296;6.900;2022-08-20T05:05:37;22.10;71.00
66568;DHT22;53422;49.296;6.900;2022-08-20T05:08:04;22.10;70.20
66568;DHT22;53422;49.296;6.900;2022-08-20T05:10:30;22.10;70.80
66568;DHT22;53422;49.296;6.900;2022-08-20T05:12:56;22.10;70.40
66568;DHT22;53422;49.296;6.900;2022-08-20T05:15:21;22.10;70.40
66568;DHT22;53422;49.296;6.900;2022-08-20T05:17:56;22.10;71.00
66568;DHT22;53422;49.296;6.900;2022-08-20T05:20:25;22.10;70.50
66568;DHT22;53422;49.296;6.900;2022-08-20T05:22:57;22.10;70.70
66568;DHT22;53422;49.296;6.900;2022-08-20T05:25:23;22.10;70.70
66568;DHT22;53422;49.296;6.900;2022-08-20T05:27:55;22.10;70.80
66568;DHT22;53422;49.296;6.900;2022-08-20T05:30:21;22.10;70.90
66568;DHT22;53422;49.296;6.900;2022-08-20T05:32:46;22.10;70.60
66568;DHT22;53422;49.296;6.900;2022-08-20T05:35:13;22.10;70.80
66568;DHT22;53422;49.296;6.900;2022-08-20T05:37:39;22.10;70.50
66568;DHT22;53422;49.296;6.900;2022-08-20T05:40:13;22.10;71.20
66568;DHT22;53422;49.296;6.900;2022-08-20T05:42:39;22.10;71.70
66568;DHT22;53422;49.296;6.900;2022-08-20T05:45:06;22.10;71.30
66568;DHT22;53422;49.296;6.900;2022-08-20T05:47:32;22.10;71.10
66568;DHT22;53422;49.296;6.900;2022-08-20T05:49:58;22.10;71.40
66568;DHT22;53422;49.296;6.900;2022-08-20T05:52:23;22.10;71.20
66568;DHT22;53422;49.296;6.900;2022-08-20T05:54:49;22.10;71.90
66568;DHT22;53422;49.296;6.900;2022-08-20T05:57:18;22.10;72.10
66568;DHT22;53422;49.296;6.900;2022-08-20T05:59:44;22.10;72.50
66568;DHT22;53422;49.296;6.900;2022-08-20T06:02:10;22.10;72.20
66568;DHT22;53422;49.296;6.900;2022-08-20T06:04:54;22.10;72.60
66568;DHT22;53422;49.296;6.900;2022-08-20T06:07:21;22.10;72.60
66568;DHT22;53422;49.296;6.900;2022-08-20T06:09:47;22.20;72.30
66568;DHT22;53422;49.296;6.900;2022-08-20T06:12:14;22.20;72.00
66568;DHT22;53422;49.296;6.900;2022-08-20T06:14:39;22.20;71.70
66568;DHT22;53422;49.296;6.900;2022-08-20T06:17:10;22.20;74.00
66568;DHT22;53422;49.296;6.900;2022-08-20T06:19:36;22.20;73.70
66568;DHT22;53422;49.296;6.900;2022-08-20T06:22:02;22.20;72.70
66568;DHT22;53422;49.296;6.900;2022-08-20T06:24:29;22.20;72.90
66568;DHT22;53422;49.296;6.900;2022-08-20T06:26:59;22.20;72.40
66568;DHT22;53422;49.296;6.900;2022-08-20T06:29:25;22.20;72.70
66568;DHT22;53422;49.296;6.900;2022-08-20T06:31:51;22.20;73.30
66568;DHT22;53422;49.296;6.900;2022-08-20T06:34:17;22.30;73.10
66568;DHT22;53422;49.296;6.900;2022-08-20T06:36:44;22.30;72.30
66568;DHT22;53422;49.296;6.900;2022-08-20T06:39:12;22.30;72.40
66568;DHT22;53422;49.296;6.900;2022-08-20T06:41:38;22.30;72.80
66568;DHT22;53422;49.296;6.900;2022-08-20T06:44:05;22.30;72.50
66568;DHT22;53422;49.296;6.900;2022-08-20T06:46:32;22.30;73.40
66568;DHT22;53422;49.296;6.900;2022-08-20T06:48:58;22.30;72.80
66568;DHT22;53422;49.296;6.900;2022-08-20T06:51:23;22.30;73.20
66568;DHT22;53422;49.296;6.900;2022-08-20T06:53:49;22.30;73.30
66568;DHT22;53422;49.296;6.900;2022-08-20T06:56:14;22.30;73.20
66568;DHT22;53422;49.296;6.900;2022-08-20T06:58:41;22.30;72.90
66568;DHT22;53422;49.296;6.900;2022-08-20T07:01:09;22.30;73.00
66568;DHT22;53422;49.296;6.900;2022-08-20T07:03:34;22.30;73.00
66568;DHT22;53422;49.296;6.900;2022-08-20T07:06:01;22.30;73.10
66568;DHT22;53422;49.296;6.900;2022-08-20T07:08:27;22.30;73.80
66568;DHT22;53422;49.296;6.900;2022-08-20T07:10:53;22.30;72.50
66568;DHT22;53422;49.296;6.900;2022-08-20T07:13:19;22.30;72.70
66568;DHT22;53422;49.296;6.900;2022-08-20T07:15:45;22.30;72.80
66568;DHT22;53422;49.296;6.900;2022-08-20T07:18:11;22.30;73.50
66568;DHT22;53422;49.296;6.900;2022-08-20T07:20:38;22.30;72.70
66568;DHT22;53422;49.296;6.900;2022-08-20T07:23:05;22.40;73.70
66568;DHT22;53422;49.296;6.900;2022-08-20T07:25:33;22.40;72.40
66568;DHT22;53422;49.296;6.900;2022-08-20T07:28:10;22.40;72.30
66568;DHT22;53422;49.296;6.900;2022-08-20T07:30:37;22.40;73.40
66568;DHT22;53422;49.296;6.900;2022-08-20T07:33:21;22.40;72.70
66568;DHT22;53422;49.296;6.900;2022-08-20T07:35:47;22.50;72.80
66568;DHT22;53422;49.296;6.900;2022-08-20T07:38:19;22.50;73.90
66568;DHT22;53422;49.296;6.900;2022-08-20T07:40:53;22.50;72.50
66568;DHT22;53422;49.296;6.900;2022-08-20T07:43:19;22.50;72.40
66568;DHT22;53422;49.296;6.900;2022-08-20T07:45:48;22.50;72.60
66568;DHT22;53422;49.296;6.900;2022-08-20T07:48:14;22.60;72.80
66568;DHT22;53422;49.296;6.900;2022-08-20T07:50:40;22.60;72.50
66568;DHT22;53422;49.296;6.900;2022-08-20T07:53:06;22.70;72.10
66568;DHT22;53422;49.296;6.900;2022-08-20T07:55:32;22.80;71.70
66568;DHT22;53422;49.296;6.900;2022-08-20T07:58:05;22.90;71.50
66568;DHT22;53422;49.296;6.900;2022-08-20T08:00:32;22.90;70.80
66568;DHT22;53422;49.296;6.900;2022-08-20T08:02:57;23.00;69.50
66568;DHT22;53422;49.296;6.900;2022-08-20T08:05:24;23.20;69.80
66568;DHT22;53422;49.296;6.900;2022-08-20T08:07:50;23.20;68.80
66568;DHT22;53422;49.296;6.900;2022-08-20T08:10:19;23.30;69.00
66568;DHT22;53422;49.296;6.900;2022-08-20T08:12:50;23.40;69.20
66568;DHT22;53422;49.296;6.900;2022-08-20T08:15:31;23.50;67.80
66568;DHT22;53422;49.296;6.900;2022-08-20T08:18:04;23.60;67.30
66568;DHT22;53422;49.296;6.900;2022-08-20T08:20:33;23.70;67.00
66568;DHT22;53422;49.296;6.900;2022-08-20T08:22:59;23.80;64.00
66568;DHT22;53422;49.296;6.900;2022-08-20T08:25:25;23.80;65.20
66568;DHT22;53422;49.296;6.900;2022-08-20T08:27:51;23.90;64.40
66568;DHT22;53422;49.296;6.900;2022-08-20T08:30:17;24.00;63.40
66568;DHT22;53422;49.296;6.900;2022-08-20T08:32:43;24.00;62.30
66568;DHT22;53422;49.296;6.900;2022-08-20T08:35:27;24.10;61.40
66568;DHT22;53422;49.296;6.900;2022-08-20T08:37:56;24.40;61.10
66568;DHT22;53422;49.296;6.900;2022-08-20T08:40:27;24.50;61.00
66568;DHT22;53422;49.296;6.900;2022-08-20T08:42:54;24.70;60.00
66568;DHT22;53422;49.296;6.900;2022-08-20T08:45:26;24.80;60.20
66568;DHT22;53422;49.296;6.900;2022-08-20T08:47:54;24.80;59.80
66568;DHT22;53422;49.296;6.900;2022-08-20T08:50:29;24.90;59.30
66568;DHT22;53422;49.296;6.900;2022-08-20T08:52:57;25.00;60.20
66568;DHT22;53422;49.296;6.900;2022-08-20T08:55:26;25.10;60.20
66568;DHT22;53422;49.296;6.900;2022-08-20T08:57:56;25.00;59.70
66568;DHT22;53422;49.296;6.900;2022-08-20T09:00:23;24.70;59.20
66568;DHT22;53422;49.296;6.900;2022-08-20T09:03:07;24.90;57.70
66568;DHT22;53422;49.296;6.900;2022-08-20T09:05:45;25.00;57.50
66568;DHT22;53422;49.296;6.900;2022-08-20T09:08:13;25.30;57.20
66568;DHT22;53422;49.296;6.900;2022-08-20T09:10:40;25.00;55.00
66568;DHT22;53422;49.296;6.900;2022-08-20T09:13:07;24.90;55.90
66568;DHT22;53422;49.296;6.900;2022-08-20T09:15:33;24.90;53.00
66568;DHT22;53422;49.296;6.900;2022-08-20T09:17:59;24.90;54.60
66568;DHT22;53422;49.296;6.900;2022-08-20T09:20:25;25.20;55.10
66568;DHT22;53422;49.296;6.900;2022-08-20T09:22:51;25.10;53.30
66568;DHT22;53422;49.296;6.900;2022-08-20T09:25:17;25.20;51.60
66568;DHT22;53422;49.296;6.900;2022-08-20T09:27:43;25.30;52.70
66568;DHT22;53422;49.296;6.900;2022-08-20T09:30:09;25.50;52.00
66568;DHT22;53422;49.296;6.900;2022-08-20T09:32:35;25.50;55.00
66568;DHT22;53422;49.296;6.900;2022-08-20T09:35:01;25.80;51.90
66568;DHT22;53422;49.296;6.900;2022-08-20T09:37:29;25.90;52.50
66568;DHT22;53422;49.296;6.900;2022-08-20T09:39:55;26.00;50.00
66568;DHT22;53422;49.296;6.900;2022-08-20T09:42:24;26.00;50.10
66568;DHT22;53422;49.296;6.900;2022-08-20T09:44:50;25.80;49.60
66568;DHT22;53422;49.296;6.900;2022-08-20T09:47:16;26.00;49.30
66568;DHT22;53422;49.296;6.900;2022-08-20T09:49:43;26.10;49.50
66568;DHT22;53422;49.296;6.900;2022-08-20T09:52:11;26.20;50.10
66568;DHT22;53422;49.296;6.900;2022-08-20T09:54:41;26.30;49.90
66568;DHT22;53422;49.296;6.900;2022-08-20T09:57:08;25.90;48.50
66568;DHT22;53422;49.296;6.900;2022-08-20T09:59:35;25.90;50.20
66568;DHT22;53422;49.296;6.900;2022-08-20T10:02:01;26.10;49.50
66568;DHT22;53422;49.296;6.900;2022-08-20T10:04:26;26.30;48.80
66568;DHT22;53422;49.296;6.900;2022-08-20T10:06:52;26.30;48.80
66568;DHT22;53422;49.296;6.900;2022-08-20T10:09:17;26.30;47.70
66568;DHT22;53422;49.296;6.900;2022-08-20T10:11:43;26.40;48.20
66568;DHT22;53422;49.296;6.900;2022-08-20T10:14:09;26.30;48.40
66568;DHT22;53422;49.296;6.900;2022-08-20T10:16:35;26.40;47.80
66568;DHT22;53422;49.296;6.900;2022-08-20T10:19:01;26.30;48.00
66568;DHT22;53422;49.296;6.900;2022-08-20T10:21:29;26.50;48.20
66568;DHT22;53422;49.296;6.900;2022-08-20T10:23:54;26.70;48.00
66568;DHT22;53422;49.296;6.900;2022-08-20T10:26:20;26.80;47.60
66568;DHT22;53422;49.296;6.900;2022-08-20T10:28:46;26.90;47.40
66568;DHT22;53422;49.296;6.900;2022-08-20T10:31:12;26.90;46.40
66568;DHT22;53422;49.296;6.900;2022-08-20T10:33:39;26.70;47.10
66568;DHT22;53422;49.296;6.900;2022-08-20T10:36:08;26.60;46.80
66568;DHT22;53422;49.296;6.900;2022-08-20T10:38:34;26.70;46.80
66568;DHT22;53422;49.296;6.900;2022-08-20T10:41:00;26.80;48.10
66568;DHT22;53422;49.296;6.900;2022-08-20T10:43:25;26.70;46.50
66568;DHT22;53422;49.296;6.900;2022-08-20T10:45:52;26.90;46.80
66568;DHT22;53422;49.296;6.900;2022-08-20T10:48:18;27.20;47.80
66568;DHT22;53422;49.296;6.900;2022-08-20T10:50:43;27.00;46.10
66568;DHT22;53422;49.296;6.900;2022-08-20T10:53:09;27.00;45.40
66568;DHT22;53422;49.296;6.900;2022-08-20T10:55:34;26.70;46.20
66568;DHT22;53422;49.296;6.900;2022-08-20T10:58:03;26.70;46.00
66568;DHT22;53422;49.296;6.900;2022-08-20T11:00:29;27.00;47.00
66568;DHT22;53422;49.296;6.900;2022-08-20T11:02:54;27.10;46.90
66568;DHT22;53422;49.296;6.900;2022-08-20T11:05:20;27.40;45.40
66568;DHT22;53422;49.296;6.900;2022-08-20T11:07:46;27.30;47.30
66568;DHT22;53422;49.296;6.900;2022-08-20T11:33:47;27.50;43.50
66568;DHT22;53422;49.296;6.900;2022-08-20T11:36:13;27.60;45.00
66568;DHT22;53422;49.296;6.900;2022-08-20T11:38:38;27.70;43.60
66568;DHT22;53422;49.296;6.900;2022-08-20T11:41:04;27.60;44.10
66568;DHT22;53422;49.296;6.900;2022-08-20T11:43:29;27.60;44.10
66568;DHT22;53422;49.296;6.900;2022-08-20T11:45:55;27.50;44.40
66568;DHT22;53422;49.296;6.900;2022-08-20T11:48:21;27.70;43.90
66568;DHT22;53422;49.296;6.900;2022-08-20T11:50:48;27.40;43.70
66568;DHT22;53422;49.296;6.900;2022-08-20T11:53:14;27.50;44.20
66568;DHT22;53422;49.296;6.900;2022-08-20T11:55:39;27.70;43.60
66568;DHT22;53422;49.296;6.900;2022-08-20T11:58:05;27.90;43.30
66568;DHT22;53422;49.296;6.900;2022-08-20T12:00:31;27.90;43.20
66568;DHT22;53422;49.296;6.900;2022-08-20T12:02:57;27.80;43.40
66568;DHT22;53422;49.296;6.900;2022-08-20T12:05:23;27.80;43.30
66568;DHT22;53422;49.296;6.900;2022-08-20T12:07:48;27.90;43.10
66568;DHT22;53422;49.296;6.900;2022-08-20T12:10:14;28.00;42.40
66568;DHT22;53422;49.296;6.900;2022-08-20T12:12:40;28.00;41.90
66568;DHT22;53422;49.296;6.900;2022-08-20T12:15:07;28.00;41.60
66568;DHT22;53422;49.296;6.900;2022-08-20T12:17:33;28.10;41.90
66568;DHT22;53422;49.296;6.900;2022-08-20T12:20:01;28.00;41.50
66568;DHT22;53422;49.296;6.900;2022-08-20T12:22:28;27.80;42.00
66568;DHT22;53422;49.296;6.900;2022-08-20T12:24:54;27.90;41.30
66568;DHT22;53422;49.296;6.900;2022-08-20T12:27:23;28.20;40.80
66568;DHT22;53422;49.296;6.900;2022-08-20T12:29:51;28.30;41.40
66568;DHT22;53422;49.296;6.900;2022-08-20T12:32:22;28.30;41.30
66568;DHT22;53422;49.296;6.900;2022-08-20T12:34:49;28.30;41.40
66568;DHT22;53422;49.296;6.900;2022-08-20T12:37:21;28.20;40.60
66568;DHT22;53422;49.296;6.900;2022-08-20T12:39:50;28.20;40.50
66568;DHT22;53422;49.296;6.900;2022-08-20T12:42:16;28.20;40.40
66568;DHT22;53422;49.296;6.900;2022-08-20T12:44:42;28.20;41.00
66568;DHT22;53422;49.296;6.900;2022-08-20T12:47:26;28.20;40.60
66568;DHT22;53422;49.296;6.900;2022-08-20T12:49:55;28.20;39.70
66568;DHT22;53422;49.296;6.900;2022-08-20T12:52:22;28.00;40.40
66568;DHT22;53422;49.296;6.900;2022-08-20T12:54:49;28.20;39.70
66568;DHT22;53422;49.296;6.900;2022-08-20T12:59:46;28.30;39.60
66568;DHT22;53422;49.296;6.900;2022-08-20T13:02:12;28.30;39.40
66568;DHT22;53422;49.296;6.900;2022-08-20T13:04:38;28.30;38.80
66568;DHT22;53422;49.296;6.900;2022-08-20T13:07:04;27.70;39.70
66568;DHT22;53422;49.296;6.900;2022-08-20T13:09:31;27.90;40.50
66568;DHT22;53422;49.296;6.900;2022-08-20T13:11:57;28.20;40.50
66568;DHT22;53422;49.296;6.900;2022-08-20T13:14:22;28.30;40.20
66568;DHT22;53422;49.296;6.900;2022-08-20T13:16:54;28.60;39.40
66568;DHT22;53422;49.296;6.900;2022-08-20T13:19:20;28.70;39.60
66568;DHT22;53422;49.296;6.900;2022-08-20T13:21:46;28.50;38.80
66568;DHT22;53422;49.296;6.900;2022-08-20T13:24:11;28.10;39.00
66568;DHT22;53422;49.296;6.900;2022-08-20T13:26:37;28.00;38.20
66568;DHT22;53422;49.296;6.900;2022-08-20T13:29:02;27.80;38.90
66568;DHT22;53422;49.296;6.900;2022-08-20T13:31:28;27.80;40.00
66568;DHT22;53422;49.296;6.900;2022-08-20T13:33:53;28.30;39.30
66568;DHT22;53422;49.296;6.900;2022-08-20T13:36:19;28.40;38.50
66568;DHT22;53422;49.296;6.900;2022-08-20T13:38:45;28.40;38.30
66568;DHT22;53422;49.296;6.900;2022-08-20T13:41:10;28.60;38.20
66568;DHT22;53422;49.296;6.900;2022-08-20T13:43:36;28.60;38.00
66568;DHT22;53422;49.296;6.900;2022-08-20T13:46:01;28.50;37.70
66568;DHT22;53422;49.296;6.900;2022-08-20T13:48:27;28.00;39.10
66568;DHT22;53422;49.296;6.900;2022-08-20T13:50:53;28.40;39.00
66568;DHT22;53422;49.296;6.900;2022-08-20T13:53:18;28.60;38.70
66568;DHT22;53422;49.296;6.900;2022-08-20T13:55:45;28.70;37.90
66568;DHT22;53422;49.296;6.900;2022-08-20T13:58:11;28.60;37.70
66568;DHT22;53422;49.296;6.900;2022-08-20T14:00:37;28.80;36.70
66568;DHT22;53422;49.296;6.900;2022-08-20T14:03:04;28.80;37.40
66568;DHT22;53422;49.296;6.900;2022-08-20T14:05:31;28.90;37.20
66568;DHT22;53422;49.296;6.900;2022-08-20T14:08:23;28.80;37.10
66568;DHT22;53422;49.296;6.900;2022-08-20T14:10:49;29.00;37.40
66568;DHT22;53422;49.296;6.900;2022-08-20T14:13:20;29.10;37.60
66568;DHT22;53422;49.296;6.900;2022-08-20T14:15:46;29.10;37.10
66568;DHT22;53422;49.296;6.900;2022-08-20T14:18:13;29.10;36.70
66568;DHT22;53422;49.296;6.900;2022-08-20T14:20:40;29.00;36.00
66568;DHT22;53422;49.296;6.900;2022-08-20T14:23:05;29.00;37.20
66568;DHT22;53422;49.296;6.900;2022-08-20T14:25:31;29.20;37.50
66568;DHT22;53422;49.296;6.900;2022-08-20T14:27:58;29.20;36.90
66568;DHT22;53422;49.296;6.900;2022-08-20T14:30:26;28.80;37.10
66568;DHT22;53422;49.296;6.900;2022-08-20T14:32:53;28.90;36.30
66568;DHT22;53422;49.296;6.900;2022-08-20T14:35:19;28.70;36.90
66568;DHT22;53422;49.296;6.900;2022-08-20T14:37:47;28.40;35.80
66568;DHT22;53422;49.296;6.900;2022-08-20T14:40:16;28.10;36.80
66568;DHT22;53422;49.296;6.900;2022-08-20T14:42:42;28.30;37.60
66568;DHT22;53422;49.296;6.900;2022-08-20T14:45:09;28.60;37.30
66568;DHT22;53422;49.296;6.900;2022-08-20T14:47:41;28.80;37.20
66568;DHT22;53422;49.296;6.900;2022-08-20T14:50:19;28.80;37.10
66568;DHT22;53422;49.296;6.900;2022-08-20T14:52:44;28.90;37.30
66568;DHT22;53422;49.296;6.900;2022-08-20T14:55:13;29.00;37.30
66568;DHT22;53422;49.296;6.900;2022-08-20T14:57:40;28.90;37.00
66568;DHT22;53422;49.296;6.900;2022-08-20T15:00:09;28.70;35.30
66568;DHT22;53422;49.296;6.900;2022-08-20T15:02:35;28.40;37.00
66568;DHT22;53422;49.296;6.900;2022-08-20T15:05:01;28.30;36.30
66568;DHT22;53422;49.296;6.900;2022-08-20T15:07:30;28.40;37.20
66568;DHT22;53422;49.296;6.900;2022-08-20T15:09:57;28.20;35.30
66568;DHT22;53422;49.296;6.900;2022-08-20T15:12:25;28.20;35.40
66568;DHT22;53422;49.296;6.900;2022-08-20T15:14:51;28.20;37.40
66568;DHT22;53422;49.296;6.900;2022-08-20T15:17:23;28.40;36.20
66568;DHT22;53422;49.296;6.900;2022-08-20T15:19:49;28.40;36.50
66568;DHT22;53422;49.296;6.900;2022-08-20T15:22:15;28.30;36.30
66568;DHT22;53422;49.296;6.900;2022-08-20T15:24:41;28.30;36.20
66568;DHT22;53422;49.296;6.900;2022-08-20T15:27:16;28.40;35.70
66568;DHT22;53422;49.296;6.900;2022-08-20T15:29:42;28.50;35.90
66568;DHT22;53422;49.296;6.900;2022-08-20T15:32:08;28.50;35.50
66568;DHT22;53422;49.296;6.900;2022-08-20T15:34:35;28.40;35.00
66568;DHT22;53422;49.296;6.900;2022-08-20T15:37:16;28.30;35.20
66568;DHT22;53422;49.296;6.900;2022-08-20T15:39:43;28.30;35.00
66568;DHT22;53422;49.296;6.900;2022-08-20T15:42:09;28.30;35.20
66568;DHT22;53422;49.296;6.900;2022-08-20T15:44:37;28.10;35.90
66568;DHT22;53422;49.296;6.900;2022-08-20T15:47:30;28.10;35.80
66568;DHT22;53422;49.296;6.900;2022-08-20T15:50:14;27.60;36.30
66568;DHT22;53422;49.296;6.900;2022-08-20T15:52:44;27.60;37.20
66568;DHT22;53422;49.296;6.900;2022-08-20T15:55:13;27.90;38.20
66568;DHT22;53422;49.296;6.900;2022-08-20T15:57:57;27.70;36.30
66568;DHT22;53422;49.296;6.900;2022-08-20T16:00:33;27.50;36.50
66568;DHT22;53422;49.296;6.900;2022-08-20T16:06:00;27.60;36.90